sensor_id;sensor_type;location;lat;lon;timestamp;temperature;humidity
67901;DHT22;54700;51.796;10.956;2024-02-15T00:02:05;10.30;99.90
67901;DHT22;54700;51.796;10.956;2024-02-15T00:04:31;10.40;99.90
67901;DHT22;54700;51.796;10.956;2024-02-15T00:06:58;10.40;99.90
67901;DHT22;54700;51.796;10.956;2024-02-15T00:09:27;10.40;99.90
67901;DHT22;54700;51.796;10.956;2024-02-15T00:11:54;10.40;99.90
67901;DHT22;54700;51.796;10.956;2024-02-15T00:14:21;10.40;99.90
67901;DHT22;54700;51.796;10.956;2024-02-15T00:16:47;10.40;99.90
67901;DHT22;54700;51.796;10.956;2024-02-15T00:19:16;10.40;99.90
67901;DHT22;54700;51.796;10.956;2024-02-15T00:21:43;10.40;99.90
67901;DHT22;54700;51.796;10.956;2024-02-15T00:24:10;10.50;99.90
67901;DHT22;54700;51.796;10.956;2024-02-15T00:26:37;10.50;99.90
67901;DHT22;54700;51.796;10.956;2024-02-15T00:29:04;10.50;99.90
67901;DHT22;54700;51.796;10.956;2024-02-15T00:31:31;10.50;99.90
67901;DHT22;54700;51.796;10.956;2024-02-15T00:33:58;10.50;99.90
67901;DHT22;54700;51.796;10.956;2024-02-15T00:36:29;10.40;99.90
67901;DHT22;54700;51.796;10.956;2024-02-15T00:38:55;10.40;99.90
67901;DHT22;54700;51.796;10.956;2024-02-15T00:41:22;10.40;99.90
67901;DHT22;54700;51.796;10.956;2024-02-15T00:43:49;10.40;99.90
67901;DHT22;54700;51.796;10.956;2024-02-15T00:46:16;10.30;99.90
67901;DHT22;54700;51.796;10.956;2024-02-15T00:48:43;10.30;99.90
67901;DHT22;54700;51.796;10.956;2024-02-15T00:51:10;10.30;99.90
67901;DHT22;54700;51.796;10.956;2024-02-15T00:53:38;10.20;99.90
67901;DHT22;54700;51.796;10.956;2024-02-15T00:56:05;10.20;99.90
67901;DHT22;54700;51.796;10.956;2024-02-15T00:58:32;10.20;99.90
67901;DHT22;54700;51.796;10.956;2024-02-15T01:00:59;10.10;99.90
67901;DHT22;54700;51.796;10.956;2024-02-15T01:03:26;10.10;99.90
67901;DHT22;54700;51.796;10.956;2024-02-15T01:05:53;10.10;99.90
67901;DHT22;54700;51.796;10.956;2024-02-15T01:08:19;10.00;99.90
67901;DHT22;54700;51.796;10.956;2024-02-15T01:10:48;10.00;99.90
67901;DHT22;54700;51.796;10.956;2024-02-15T01:13:15;10.00;99.90
67901;DHT22;54700;51.796;10.956;2024-02-15T01:15:41;10.00;99.90
67901;DHT22;54700;51.796;10.956;2024-02-15T01:18:11;10.00;99.90
67901;DHT22;54700;51.796;10.956;2024-02-15T01:20:38;10.00;99.90
67901;DHT22;54700;51.796;10.956;2024-02-15T01:23:05;10.10;99.90
67901;DHT22;54700;51.796;10.956;2024-02-15T01:25:33;10.10;99.90
67901;DHT22;54700;51.796;10.956;2024-02-15T01:28:01;10.20;99.90
67901;DHT22;54700;51.796;10.956;2024-02-15T01:30:28;10.20;99.90
67901;DHT22;54700;51.796;10.956;2024-02-15T01:32:55;10.20;99.90
67901;DHT22;54700;51.796;10.956;2024-02-15T01:35:22;10.20;99.90
67901;DHT22;54700;51.796;10.956;2024-02-15T01:37:49;10.20;99.90
67901;DHT22;54700;51.796;10.956;2024-02-15T01:40:16;10.20;99.90
67901;DHT22;54700;51.796;10.956;2024-02-15T01:42:44;10.30;99.90
67901;DHT22;54700;51.796;10.956;2024-02-15T01:45:13;10.30;99.90
67901;DHT22;54700;51.796;10.956;2024-02-15T01:47:40;10.30;99.90
67901;DHT22;54700;51.796;10.956;2024-02-15T01:50:08;10.30;99.90
67901;DHT22;54700;51.796;10.956;2024-02-15T01:52:36;10.40;99.90
67901;DHT22;54700;51.796;10.956;2024-02-15T01:55:04;10.30;99.90
67901;DHT22;54700;51.796;10.956;2024-02-15T01:57:33;10.30;99.90
67901;DHT22;54700;51.796;10.956;2024-02-15T02:00:03;10.20;99.90
67901;DHT22;54700;51.796;10.956;2024-02-15T02:02:33;10.20;99.90
67901;DHT22;54700;51.796;10.956;2024-02-15T02:05:04;10.20;99.90
67901;DHT22;54700;51.796;10.956;2024-02-15T02:07:33;10.20;99.90
67901;DHT22;54700;51.796;10.956;2024-02-15T02:10:00;10.20;99.90
67901;DHT22;54700;51.796;10.956;2024-02-15T02:12:27;10.20;99.90
67901;DHT22;54700;51.796;10.956;2024-02-15T02:14:54;10.20;99.90
67901;DHT22;54700;51.796;10.956;2024-02-15T02:17:22;10.20;99.90
67901;DHT22;54700;51.796;10.956;2024-02-15T02:19:50;10.20;99.90
67901;DHT22;54700;51.796;10.956;2024-02-15T02:22:17;10.20;99.90
67901;DHT22;54700;51.796;10.956;2024-02-15T02:24:58;10.20;99.90
67901;DHT22;54700;51.796;10.956;2024-02-15T02:27:28;10.20;99.90
67901;DHT22;54700;51.796;10.956;2024-02-15T02:29:56;10.10;99.90
67901;DHT22;54700;51.796;10.956;2024-02-15T02:32:24;10.10;99.90
67901;DHT22;54700;51.796;10.956;2024-02-15T02:34:51;10.10;99.90
67901;DHT22;54700;51.796;10.956;2024-02-15T02:37:22;10.10;99.90
67901;DHT22;54700;51.796;10.956;2024-02-15T02:39:49;10.10;99.90
67901;DHT22;54700;51.796;10.956;2024-02-15T02:42:18;10.10;99.90
67901;DHT22;54700;51.796;10.956;2024-02-15T02:44:46;10.10;99.90
67901;DHT22;54700;51.796;10.956;2024-02-15T02:47:13;10.10;99.90
67901;DHT22;54700;51.796;10.956;2024-02-15T02:49:40;10.10;99.90
67901;DHT22;54700;51.796;10.956;2024-02-15T02:52:07;10.10;99.90
67901;DHT22;54700;51.796;10.956;2024-02-15T02:54:34;10.20;99.90
67901;DHT22;54700;51.796;10.956;2024-02-15T02:57:01;10.20;99.90
67901;DHT22;54700;51.796;10.956;2024-02-15T02:59:34;10.20;99.90
67901;DHT22;54700;51.796;10.956;2024-02-15T03:02:01;10.30;99.90
67901;DHT22;54700;51.796;10.956;2024-02-15T03:04:29;10.30;99.90
67901;DHT22;54700;51.796;10.956;2024-02-15T03:06:55;10.20;99.90
67901;DHT22;54700;51.796;10.956;2024-02-15T03:09:26;10.30;99.90
67901;DHT22;54700;51.796;10.956;2024-02-15T03:11:54;10.30;99.90
67901;DHT22;54700;51.796;10.956;2024-02-15T03:14:22;10.30;99.90
67901;DHT22;54700;51.796;10.956;2024-02-15T03:16:50;10.30;99.90
67901;DHT22;54700;51.796;10.956;2024-02-15T03:19:17;10.30;99.90
67901;DHT22;54700;51.796;10.956;2024-02-15T03:21:44;10.30;99.90
67901;DHT22;54700;51.796;10.956;2024-02-15T03:24:12;10.20;99.90
67901;DHT22;54700;51.796;10.956;2024-02-15T03:26:38;10.20;99.90
67901;DHT22;54700;51.796;10.956;2024-02-15T03:29:07;10.20;99.90
67901;DHT22;54700;51.796;10.956;2024-02-15T03:31:35;10.20;99.90
67901;DHT22;54700;51.796;10.956;2024-02-15T03:34:04;10.20;99.90
67901;DHT22;54700;51.796;10.956;2024-02-15T03:36:31;10.20;99.90
67901;DHT22;54700;51.796;10.956;2024-02-15T03:38:58;10.30;99.90
67901;DHT22;54700;51.796;10.956;2024-02-15T03:41:29;10.30;99.90
67901;DHT22;54700;51.796;10.956;2024-02-15T03:43:58;10.40;99.90
67901;DHT22;54700;51.796;10.956;2024-02-15T03:46:25;10.50;99.90
67901;DHT22;54700;51.796;10.956;2024-02-15T03:48:52;10.50;99.90
67901;DHT22;54700;51.796;10.956;2024-02-15T03:51:20;10.50;99.90
67901;DHT22;54700;51.796;10.956;2024-02-15T03:53:48;10.50;99.90
67901;DHT22;54700;51.796;10.956;2024-02-15T03:56:17;10.50;99.90
67901;DHT22;54700;51.796;10.956;2024-02-15T03:58:44;10.50;99.90
67901;DHT22;54700;51.796;10.956;2024-02-15T04:01:11;10.50;99.90
67901;DHT22;54700;51.796;10.956;2024-02-15T04:03:40;10.50;99.90
67901;DHT22;54700;51.796;10.956;2024-02-15T04:06:07;10.50;99.90
67901;DHT22;54700;51.796;10.956;2024-02-15T04:08:36;10.60;99.90
67901;DHT22;54700;51.796;10.956;2024-02-15T04:11:04;10.60;99.90
67901;DHT22;54700;51.796;10.956;2024-02-15T04:13:31;10.60;99.90
67901;DHT22;54700;51.796;10.956;2024-02-15T04:15:58;10.50;99.90
67901;DHT22;54700;51.796;10.956;2024-02-15T04:18:25;10.50;99.90
67901;DHT22;54700;51.796;10.956;2024-02-15T04:20:52;10.50;99.90
67901;DHT22;54700;51.796;10.956;2024-02-15T04:23:19;10.50;99.90
67901;DHT22;54700;51.796;10.956;2024-02-15T04:25:47;10.50;99.90
67901;DHT22;54700;51.796;10.956;2024-02-15T04:28:17;10.50;99.90
67901;DHT22;54700;51.796;10.956;2024-02-15T04:30:44;10.50;99.90
67901;DHT22;54700;51.796;10.956;2024-02-15T04:33:12;10.50;99.90
67901;DHT22;54700;51.796;10.956;2024-02-15T04:35:40;10.50;99.90
67901;DHT22;54700;51.796;10.956;2024-02-15T04:38:07;10.60;99.90
67901;DHT22;54700;51.796;10.956;2024-02-15T04:40:34;10.60;99.90
67901;DHT22;54700;51.796;10.956;2024-02-15T04:43:05;10.60;99.90
67901;DHT22;54700;51.796;10.956;2024-02-15T04:45:32;10.60;99.90
67901;DHT22;54700;51.796;10.956;2024-02-15T04:47:59;10.60;99.90
67901;DHT22;54700;51.796;10.956;2024-02-15T04:50:27;10.60;99.90
67901;DHT22;54700;51.796;10.956;2024-02-15T04:52:54;10.60;99.90
67901;DHT22;54700;51.796;10.956;2024-02-15T04:55:21;10.60;99.90
67901;DHT22;54700;51.796;10.956;2024-02-15T04:57:48;10.60;99.90
67901;DHT22;54700;51.796;10.956;2024-02-15T05:00:23;10.70;99.90
67901;DHT22;54700;51.796;10.956;2024-02-15T05:02:51;10.70;99.90
67901;DHT22;54700;51.796;10.956;2024-02-15T05:05:18;10.70;99.90
67901;DHT22;54700;51.796;10.956;2024-02-15T05:07:47;10.60;99.90
67901;DHT22;54700;51.796;10.956;2024-02-15T05:10:14;10.60;99.90
67901;DHT22;54700;51.796;10.956;2024-02-15T05:12:42;10.60;99.90
67901;DHT22;54700;51.796;10.956;2024-02-15T05:15:09;10.60;99.90
67901;DHT22;54700;51.796;10.956;2024-02-15T05:17:38;10.60;99.90
67901;DHT22;54700;51.796;10.956;2024-02-15T05:20:07;10.70;99.90
67901;DHT22;54700;51.796;10.956;2024-02-15T05:22:37;10.70;99.90
67901;DHT22;54700;51.796;10.956;2024-02-15T05:25:06;10.70;99.90
67901;DHT22;54700;51.796;10.956;2024-02-15T05:27:33;10.70;99.90
67901;DHT22;54700;51.796;10.956;2024-02-15T05:30:02;10.70;99.90
67901;DHT22;54700;51.796;10.956;2024-02-15T05:32:33;10.60;99.90
67901;DHT22;54700;51.796;10.956;2024-02-15T05:35:08;10.60;99.90
67901;DHT22;54700;51.796;10.956;2024-02-15T05:37:36;10.70;99.90
67901;DHT22;54700;51.796;10.956;2024-02-15T05:40:03;10.70;99.90
67901;DHT22;54700;51.796;10.956;2024-02-15T05:42:31;10.70;99.90
67901;DHT22;54700;51.796;10.956;2024-02-15T05:44:59;10.70;99.90
67901;DHT22;54700;51.796;10.956;2024-02-15T05:47:57;10.70;99.90
67901;DHT22;54700;51.796;10.956;2024-02-15T05:50:26;10.70;99.90
67901;DHT22;54700;51.796;10.956;2024-02-15T05:52:55;10.70;99.90
67901;DHT22;54700;51.796;10.956;2024-02-15T05:55:23;10.80;99.90
67901;DHT22;54700;51.796;10.956;2024-02-15T05:57:51;10.80;99.90
67901;DHT22;54700;51.796;10.956;2024-02-15T06:00:19;10.80;99.90
67901;DHT22;54700;51.796;10.956;2024-02-15T06:02:47;10.90;99.90
67901;DHT22;54700;51.796;10.956;2024-02-15T06:05:14;10.90;99.90
67901;DHT22;54700;51.796;10.956;2024-02-15T06:07:44;10.90;99.90
67901;DHT22;54700;51.796;10.956;2024-02-15T06:10:12;11.00;99.90
67901;DHT22;54700;51.796;10.956;2024-02-15T06:12:40;11.00;99.90
67901;DHT22;54700;51.796;10.956;2024-02-15T06:15:08;11.00;99.90
67901;DHT22;54700;51.796;10.956;2024-02-15T06:17:40;11.00;99.90
67901;DHT22;54700;51.796;10.956;2024-02-15T06:20:10;11.00;99.90
67901;DHT22;54700;51.796;10.956;2024-02-15T06:22:40;11.00;99.90
67901;DHT22;54700;51.796;10.956;2024-02-15T06:25:09;11.00;99.90
67901;DHT22;54700;51.796;10.956;2024-02-15T06:27:38;10.90;99.90
67901;DHT22;54700;51.796;10.956;2024-02-15T06:30:08;10.90;99.90
67901;DHT22;54700;51.796;10.956;2024-02-15T06:32:53;10.90;99.90
67901;DHT22;54700;51.796;10.956;2024-02-15T06:35:40;10.90;99.90
67901;DHT22;54700;51.796;10.956;2024-02-15T06:38:25;10.80;99.90
67901;DHT22;54700;51.796;10.956;2024-02-15T06:41:11;10.90;99.90
67901;DHT22;54700;51.796;10.956;2024-02-15T06:43:38;10.90;99.90
67901;DHT22;54700;51.796;10.956;2024-02-15T06:46:06;10.90;99.90
67901;DHT22;54700;51.796;10.956;2024-02-15T06:48:33;10.90;99.90
67901;DHT22;54700;51.796;10.956;2024-02-15T06:51:00;10.90;99.90
67901;DHT22;54700;51.796;10.956;2024-02-15T06:53:28;10.90;99.90
67901;DHT22;54700;51.796;10.956;2024-02-15T06:55:55;10.90;99.90
67901;DHT22;54700;51.796;10.956;2024-02-15T06:58:26;11.00;99.90
67901;DHT22;54700;51.796;10.956;2024-02-15T07:00:53;11.00;99.90
67901;DHT22;54700;51.796;10.956;2024-02-15T07:03:20;11.00;99.90
67901;DHT22;54700;51.796;10.956;2024-02-15T07:05:49;11.00;99.90
67901;DHT22;54700;51.796;10.956;2024-02-15T07:08:16;10.90;99.90
67901;DHT22;54700;51.796;10.956;2024-02-15T07:10:44;11.00;99.90
67901;DHT22;54700;51.796;10.956;2024-02-15T07:13:11;10.90;99.90
67901;DHT22;54700;51.796;10.956;2024-02-15T07:15:39;10.90;99.90
67901;DHT22;54700;51.796;10.956;2024-02-15T07:18:07;10.90;99.90
67901;DHT22;54700;51.796;10.956;2024-02-15T07:20:35;10.90;99.90
67901;DHT22;54700;51.796;10.956;2024-02-15T07:23:02;10.90;99.90
67901;DHT22;54700;51.796;10.956;2024-02-15T07:25:29;10.90;99.90
67901;DHT22;54700;51.796;10.956;2024-02-15T07:27:56;10.90;99.90
67901;DHT22;54700;51.796;10.956;2024-02-15T07:30:24;10.90;99.90
67901;DHT22;54700;51.796;10.956;2024-02-15T07:32:52;11.00;99.90
67901;DHT22;54700;51.796;10.956;2024-02-15T07:35:19;11.00;99.90
67901;DHT22;54700;51.796;10.956;2024-02-15T07:37:51;11.10;99.90
67901;DHT22;54700;51.796;10.956;2024-02-15T07:40:20;11.10;99.90
67901;DHT22;54700;51.796;10.956;2024-02-15T07:42:48;11.10;99.90
67901;DHT22;54700;51.796;10.956;2024-02-15T07:45:17;11.20;99.90
67901;DHT22;54700;51.796;10.956;2024-02-15T07:47:44;11.20;99.90
67901;DHT22;54700;51.796;10.956;2024-02-15T07:50:15;11.30;99.90
67901;DHT22;54700;51.796;10.956;2024-02-15T07:52:48;11.40;99.90
67901;DHT22;54700;51.796;10.956;2024-02-15T07:55:17;11.40;99.90
67901;DHT22;54700;51.796;10.956;2024-02-15T07:57:44;11.50;99.90
67901;DHT22;54700;51.796;10.956;2024-02-15T08:00:13;11.60;99.90
67901;DHT22;54700;51.796;10.956;2024-02-15T08:02:41;11.60;99.90
67901;DHT22;54700;51.796;10.956;2024-02-15T08:05:09;11.70;99.90
67901;DHT22;54700;51.796;10.956;2024-02-15T08:07:41;11.70;99.90
67901;DHT22;54700;51.796;10.956;2024-02-15T08:10:09;11.70;99.90
67901;DHT22;54700;51.796;10.956;2024-02-15T08:12:38;11.80;99.90
67901;DHT22;54700;51.796;10.956;2024-02-15T08:15:06;11.80;99.90
67901;DHT22;54700;51.796;10.956;2024-02-15T08:17:38;11.80;99.90
67901;DHT22;54700;51.796;10.956;2024-02-15T08:20:06;11.80;99.90
67901;DHT22;54700;51.796;10.956;2024-02-15T08:22:36;11.80;99.90
67901;DHT22;54700;51.796;10.956;2024-02-15T08:25:07;11.80;99.90
67901;DHT22;54700;51.796;10.956;2024-02-15T08:27:36;11.80;99.90
67901;DHT22;54700;51.796;10.956;2024-02-15T08:30:09;11.80;99.90
67901;DHT22;54700;51.796;10.956;2024-02-15T08:32:37;11.80;99.90
67901;DHT22;54700;51.796;10.956;2024-02-15T08:35:05;11.80;99.90
67901;DHT22;54700;51.796;10.956;2024-02-15T08:37:36;11.80;99.90
67901;DHT22;54700;51.796;10.956;2024-02-15T08:40:04;11.90;99.90
67901;DHT22;54700;51.796;10.956;2024-02-15T08:42:36;11.90;99.90
67901;DHT22;54700;51.796;10.956;2024-02-15T08:45:04;12.00;99.90
67901;DHT22;54700;51.796;10.956;2024-02-15T08:47:34;12.10;99.90
67901;DHT22;54700;51.796;10.956;2024-02-15T08:50:04;12.10;99.90
67901;DHT22;54700;51.796;10.956;2024-02-15T08:52:34;12.20;99.90
67901;DHT22;54700;51.796;10.956;2024-02-15T08:55:03;12.20;99.90
67901;DHT22;54700;51.796;10.956;2024-02-15T08:57:33;12.20;99.90
67901;DHT22;54700;51.796;10.956;2024-02-15T09:00:01;12.20;99.90
67901;DHT22;54700;51.796;10.956;2024-02-15T09:02:31;12.30;99.90
67901;DHT22;54700;51.796;10.956;2024-02-15T09:04:58;12.30;99.90
67901;DHT22;54700;51.796;10.956;2024-02-15T09:07:25;12.30;99.90
67901;DHT22;54700;51.796;10.956;2024-02-15T09:09:52;12.30;99.90
67901;DHT22;54700;51.796;10.956;2024-02-15T09:12:20;12.30;99.90
67901;DHT22;54700;51.796;10.956;2024-02-15T09:14:49;12.30;99.90
67901;DHT22;54700;51.796;10.956;2024-02-15T09:17:16;12.30;99.90
67901;DHT22;54700;51.796;10.956;2024-02-15T09:19:43;12.30;99.90
67901;DHT22;54700;51.796;10.956;2024-02-15T09:22:12;12.30;99.90
67901;DHT22;54700;51.796;10.956;2024-02-15T09:24:39;12.30;99.90
67901;DHT22;54700;51.796;10.956;2024-02-15T09:27:07;12.30;99.90
67901;DHT22;54700;51.796;10.956;2024-02-15T09:29:37;12.30;99.90
67901;DHT22;54700;51.796;10.956;2024-02-15T09:32:07;12.30;99.90
67901;DHT22;54700;51.796;10.956;2024-02-15T09:34:34;12.30;99.90
67901;DHT22;54700;51.796;10.956;2024-02-15T09:37:00;12.30;99.90
67901;DHT22;54700;51.796;10.956;2024-02-15T09:39:27;12.30;99.90
67901;DHT22;54700;51.796;10.956;2024-02-15T09:41:55;12.40;99.90
67901;DHT22;54700;51.796;10.956;2024-02-15T09:44:24;12.40;99.90
67901;DHT22;54700;51.796;10.956;2024-02-15T09:46:55;12.40;99.90
67901;DHT22;54700;51.796;10.956;2024-02-15T09:49:31;12.50;99.90
67901;DHT22;54700;51.796;10.956;2024-02-15T09:52:04;12.50;99.90
67901;DHT22;54700;51.796;10.956;2024-02-15T09:54:38;12.60;99.90
67901;DHT22;54700;51.796;10.956;2024-02-15T09:57:08;12.70;99.90
67901;DHT22;54700;51.796;10.956;2024-02-15T09:59:37;12.70;99.90
67901;DHT22;54700;51.796;10.956;2024-02-15T10:02:05;12.80;99.90
67901;DHT22;54700;51.796;10.956;2024-02-15T10:04:38;12.80;99.90
67901;DHT22;54700;51.796;10.956;2024-02-15T10:07:05;12.90;99.90
67901;DHT22;54700;51.796;10.956;2024-02-15T10:09:34;12.90;99.90
67901;DHT22;54700;51.796;10.956;2024-02-15T10:12:02;13.00;99.90
67901;DHT22;54700;51.796;10.956;2024-02-15T10:14:32;13.10;99.90
67901;DHT22;54700;51.796;10.956;2024-02-15T10:17:05;13.20;99.90
67901;DHT22;54700;51.796;10.956;2024-02-15T10:19:34;13.30;99.90
67901;DHT22;54700;51.796;10.956;2024-02-15T10:22:06;13.30;99.90
67901;DHT22;54700;51.796;10.956;2024-02-15T10:24:35;13.30;99.90
67901;DHT22;54700;51.796;10.956;2024-02-15T10:27:02;13.40;99.90
67901;DHT22;54700;51.796;10.956;2024-02-15T10:29:32;13.40;99.90
67901;DHT22;54700;51.796;10.956;2024-02-15T10:31:59;13.40;99.90
67901;DHT22;54700;51.796;10.956;2024-02-15T10:34:27;13.40;99.90
67901;DHT22;54700;51.796;10.956;2024-02-15T10:36:55;13.40;99.90
67901;DHT22;54700;51.796;10.956;2024-02-15T10:39:39;13.40;99.90
67901;DHT22;54700;51.796;10.956;2024-02-15T10:42:06;13.30;99.90
67901;DHT22;54700;51.796;10.956;2024-02-15T10:44:36;13.30;99.90
67901;DHT22;54700;51.796;10.956;2024-02-15T10:47:06;13.30;99.90
67901;DHT22;54700;51.796;10.956;2024-02-15T10:49:34;13.30;99.90
67901;DHT22;54700;51.796;10.956;2024-02-15T10:52:01;13.30;99.90
67901;DHT22;54700;51.796;10.956;2024-02-15T10:54:47;13.30;99.90
67901;DHT22;54700;51.796;10.956;2024-02-15T10:57:19;13.30;99.90
67901;DHT22;54700;51.796;10.956;2024-02-15T10:59:51;13.30;99.90
67901;DHT22;54700;51.796;10.956;2024-02-15T11:02:29;13.30;99.90
67901;DHT22;54700;51.796;10.956;2024-02-15T11:05:00;13.30;99.90
67901;DHT22;54700;51.796;10.956;2024-02-15T11:07:30;13.30;99.90
67901;DHT22;54700;51.796;10.956;2024-02-15T11:09:59;13.30;99.90
67901;DHT22;54700;51.796;10.956;2024-02-15T11:12:27;13.30;99.90
67901;DHT22;54700;51.796;10.956;2024-02-15T11:14:56;13.40;99.90
67901;DHT22;54700;51.796;10.956;2024-02-15T11:23:24;13.50;99.90
67901;DHT22;54700;51.796;10.956;2024-02-15T11:25:57;13.50;99.90
67901;DHT22;54700;51.796;10.956;2024-02-15T11:28:38;13.40;99.90
67901;DHT22;54700;51.796;10.956;2024-02-15T11:31:17;13.50;99.90
67901;DHT22;54700;51.796;10.956;2024-02-15T11:40:11;13.80;99.90
67901;DHT22;54700;51.796;10.956;2024-02-15T11:42:39;13.80;99.90
67901;DHT22;54700;51.796;10.956;2024-02-15T11:45:07;13.80;99.90
67901;DHT22;54700;51.796;10.956;2024-02-15T11:47:36;13.80;99.70
67901;DHT22;54700;51.796;10.956;2024-02-15T11:50:05;13.80;99.90
67901;DHT22;54700;51.796;10.956;2024-02-15T11:52:38;13.80;99.90
67901;DHT22;54700;51.796;10.956;2024-02-15T11:55:08;13.90;99.90
67901;DHT22;54700;51.796;10.956;2024-02-15T11:57:39;13.90;99.90
67901;DHT22;54700;51.796;10.956;2024-02-15T12:00:26;13.90;99.90
67901;DHT22;54700;51.796;10.956;2024-02-15T12:03:10;13.90;99.90
67901;DHT22;54700;51.796;10.956;2024-02-15T12:05:58;13.90;99.90
67901;DHT22;54700;51.796;10.956;2024-02-15T12:08:44;13.90;99.90
67901;DHT22;54700;51.796;10.956;2024-02-15T12:11:29;13.90;99.90
67901;DHT22;54700;51.796;10.956;2024-02-15T12:14:15;13.90;99.90
67901;DHT22;54700;51.796;10.956;2024-02-15T12:17:03;13.90;99.90
67901;DHT22;54700;51.796;10.956;2024-02-15T12:19:49;14.00;99.90
67901;DHT22;54700;51.796;10.956;2024-02-15T12:22:19;14.00;99.90
67901;DHT22;54700;51.796;10.956;2024-02-15T12:24:57;13.90;99.90
67901;DHT22;54700;51.796;10.956;2024-02-15T12:27:25;13.90;99.90
67901;DHT22;54700;51.796;10.956;2024-02-15T12:29:55;13.90;99.90
67901;DHT22;54700;51.796;10.956;2024-02-15T12:32:23;13.90;99.90
67901;DHT22;54700;51.796;10.956;2024-02-15T12:35:02;13.80;99.90
67901;DHT22;54700;51.796;10.956;2024-02-15T12:37:38;13.80;99.90
67901;DHT22;54700;51.796;10.956;2024-02-15T12:40:12;13.70;99.90
67901;DHT22;54700;51.796;10.956;2024-02-15T12:42:42;13.70;99.90
67901;DHT22;54700;51.796;10.956;2024-02-15T12:47:55;13.70;99.90
67901;DHT22;54700;51.796;10.956;2024-02-15T12:50:23;13.70;99.90
67901;DHT22;54700;51.796;10.956;2024-02-15T12:52:53;13.70;99.90
67901;DHT22;54700;51.796;10.956;2024-02-15T12:55:28;13.70;99.90
67901;DHT22;54700;51.796;10.956;2024-02-15T12:57:59;13.70;99.90
67901;DHT22;54700;51.796;10.956;2024-02-15T13:00:30;13.70;99.90
67901;DHT22;54700;51.796;10.956;2024-02-15T13:02:58;13.70;99.90
67901;DHT22;54700;51.796;10.956;2024-02-15T13:05:28;13.70;99.90
67901;DHT22;54700;51.796;10.956;2024-02-15T13:07:56;13.70;99.90
67901;DHT22;54700;51.796;10.956;2024-02-15T13:10:24;13.70;99.90
67901;DHT22;54700;51.796;10.956;2024-02-15T13:12:51;13.70;99.90
67901;DHT22;54700;51.796;10.956;2024-02-15T13:15:20;13.70;99.90
67901;DHT22;54700;51.796;10.956;2024-02-15T13:17:53;13.70;99.90
67901;DHT22;54700;51.796;10.956;2024-02-15T13:20:20;13.70;99.90
67901;DHT22;54700;51.796;10.956;2024-02-15T13:22:57;13.60;99.90
67901;DHT22;54700;51.796;10.956;2024-02-15T13:25:27;13.60;99.90
67901;DHT22;54700;51.796;10.956;2024-02-15T13:27:55;13.60;99.90
67901;DHT22;54700;51.796;10.956;2024-02-15T13:30:22;13.60;99.90
67901;DHT22;54700;51.796;10.956;2024-02-15T13:32:54;13.50;99.90
67901;DHT22;54700;51.796;10.956;2024-02-15T13:35:21;13.50;99.90
67901;DHT22;54700;51.796;10.956;2024-02-15T13:37:49;13.50;99.90
67901;DHT22;54700;51.796;10.956;2024-02-15T13:40:19;13.60;99.90
67901;DHT22;54700;51.796;10.956;2024-02-15T13:42:49;13.60;99.90
67901;DHT22;54700;51.796;10.956;2024-02-15T13:45:19;13.60;99.90
67901;DHT22;54700;51.796;10.956;2024-02-15T13:47:49;13.50;99.90
67901;DHT22;54700;51.796;10.956;2024-02-15T13:50:18;13.40;99.90
67901;DHT22;54700;51.796;10.956;2024-02-15T13:52:45;13.30;99.90
67901;DHT22;54700;51.796;10.956;2024-02-15T13:55:13;13.20;99.90
67901;DHT22;54700;51.796;10.956;2024-02-15T13:57:42;13.00;99.90
67901;DHT22;54700;51.796;10.956;2024-02-15T14:00:10;12.90;99.90
67901;DHT22;54700;51.796;10.956;2024-02-15T14:02:47;12.70;99.90
67901;DHT22;54700;51.796;10.956;2024-02-15T14:05:14;12.60;99.90
67901;DHT22;54700;51.796;10.956;2024-02-15T14:07:47;12.60;99.90
67901;DHT22;54700;51.796;10.956;2024-02-15T14:10:15;12.50;99.90
67901;DHT22;54700;51.796;10.956;2024-02-15T14:12:44;12.40;99.90
67901;DHT22;54700;51.796;10.956;2024-02-15T14:15:11;12.30;99.90
67901;DHT22;54700;51.796;10.956;2024-02-15T14:17:38;12.30;99.90
67901;DHT22;54700;51.796;10.956;2024-02-15T14:20:09;12.30;99.90
67901;DHT22;54700;51.796;10.956;2024-02-15T14:22:39;12.30;99.90
67901;DHT22;54700;51.796;10.956;2024-02-15T14:25:07;12.30;99.90
67901;DHT22;54700;51.796;10.956;2024-02-15T14:27:37;12.30;99.90
67901;DHT22;54700;51.796;10.956;2024-02-15T14:30:05;12.40;99.90
67901;DHT22;54700;51.796;10.956;2024-02-15T14:32:50;12.40;99.90
67901;DHT22;54700;51.796;10.956;2024-02-15T14:35:30;12.40;99.90
67901;DHT22;54700;51.796;10.956;2024-02-15T14:38:00;12.40;99.90
67901;DHT22;54700;51.796;10.956;2024-02-15T14:40:32;12.40;99.90
67901;DHT22;54700;51.796;10.956;2024-02-15T14:42:59;12.40;99.90
67901;DHT22;54700;51.796;10.956;2024-02-15T14:45:27;12.40;99.90
67901;DHT22;54700;51.796;10.956;2024-02-15T14:47:54;12.50;99.90
67901;DHT22;54700;51.796;10.956;2024-02-15T14:50:20;12.50;99.90
67901;DHT22;54700;51.796;10.956;2024-02-15T14:52:49;12.50;99.90
67901;DHT22;54700;51.796;10.956;2024-02-15T14:55:17;12.60;99.90
67901;DHT22;54700;51.796;10.956;2024-02-15T14:57:45;12.60;99.90
67901;DHT22;54700;51.796;10.956;2024-02-15T15:00:13;12.60;99.90
67901;DHT22;54700;51.796;10.956;2024-02-15T15:02:42;12.60;99.90
67901;DHT22;54700;51.796;10.956;2024-02-15T15:05:10;12.60;99.90
67901;DHT22;54700;51.796;10.956;2024-02-15T15:07:54;12.70;99.90
67901;DHT22;54700;51.796;10.956;2024-02-15T15:10:38;12.60;99.90
67901;DHT22;54700;51.796;10.956;2024-02-15T15:13:24;12.70;99.90
67901;DHT22;54700;51.796;10.956;2024-02-15T15:15:51;12.60;99.90
67901;DHT22;54700;51.796;10.956;2024-02-15T15:18:18;12.60;99.90
67901;DHT22;54700;51.796;10.956;2024-02-15T15:20:46;12.60;99.90
67901;DHT22;54700;51.796;10.956;2024-02-15T15:23:16;12.60;99.90
67901;DHT22;54700;51.796;10.956;2024-02-15T15:25:44;12.60;99.90
67901;DHT22;54700;51.796;10.956;2024-02-15T15:28:12;12.60;99.90
67901;DHT22;54700;51.796;10.956;2024-02-15T15:30:41;12.60;99.90
67901;DHT22;54700;51.796;10.956;2024-02-15T15:33:13;12.60;99.90
67901;DHT22;54700;51.796;10.956;2024-02-15T15:35:40;12.60;99.90
67901;DHT22;54700;51.796;10.956;2024-02-15T15:38:07;12.60;99.90
67901;DHT22;54700;51.796;10.956;2024-02-15T15:40:34;12.60;99.90
67901;DHT22;54700;51.796;10.956;2024-02-15T15:43:00;12.50;99.90
67901;DHT22;54700;51.796;10.956;2024-02-15T15:45:30;12.50;99.90